<?xml version="1.0" encoding="UTF-8" standalone="no" ?>
<gpx xmlns="http://www.topografix.com/GPX/1/1" xmlns:xsi="http://www.w3.org/2001/XMLSchema-instance" xsi:schemaLocation="http://www.topografix.com/GPX/1/1 http://www.topografix.com/GPX/1/1/gpx.xsd" version="1.1" creator="VisuGPX - https://www.visugpx.com">
  <metadata>
    <name>COURSE A PIED </name>
    <desc><![CDATA[COURSE A PIEDS POUR REMISE ENFORME POUR LE GEIJUTSU]]></desc>
  </metadata>
  <trk>
    <name><![CDATA[COURSE A PIED _1]]></name>
    <trkseg>
      <trkpt lat="49.87951" lon="5.23989">
        <ele>377</ele>
        <time>2017-06-21T06:05:32Z</time>
      </trkpt>
      <trkpt lat="49.87953" lon="5.2398">
        <ele>377</ele>
        <time>2017-06-21T06:05:42Z</time>
      </trkpt>
      <trkpt lat="49.87937" lon="5.23956">
        <ele>377</ele>
        <time>2017-06-21T06:05:52Z</time>
      </trkpt>
      <trkpt lat="49.87921" lon="5.23923">
        <ele>377</ele>
        <time>2017-06-21T06:06:03Z</time>
      </trkpt>
      <trkpt lat="49.87934" lon="5.23886">
        <ele>377</ele>
        <time>2017-06-21T06:06:14Z</time>
      </trkpt>
      <trkpt lat="49.87948" lon="5.23856">
        <ele>377</ele>
        <time>2017-06-21T06:06:24Z</time>
      </trkpt>
      <trkpt lat="49.87964" lon="5.2382">
        <ele>376</ele>
        <time>2017-06-21T06:06:35Z</time>
      </trkpt>
      <trkpt lat="49.87977" lon="5.23786">
        <ele>375</ele>
        <time>2017-06-21T06:06:45Z</time>
      </trkpt>
      <trkpt lat="49.87989" lon="5.23752">
        <ele>375</ele>
        <time>2017-06-21T06:06:55Z</time>
      </trkpt>
      <trkpt lat="49.88006" lon="5.23724">
        <ele>374</ele>
        <time>2017-06-21T06:07:06Z</time>
      </trkpt>
      <trkpt lat="49.88019" lon="5.237">
        <ele>373</ele>
        <time>2017-06-21T06:07:16Z</time>
      </trkpt>
      <trkpt lat="49.88033" lon="5.23665">
        <ele>372</ele>
        <time>2017-06-21T06:07:26Z</time>
      </trkpt>
      <trkpt lat="49.88049" lon="5.2363">
        <ele>371</ele>
        <time>2017-06-21T06:07:37Z</time>
      </trkpt>
      <trkpt lat="49.88065" lon="5.23601">
        <ele>370</ele>
        <time>2017-06-21T06:07:48Z</time>
      </trkpt>
      <trkpt lat="49.8808" lon="5.23578">
        <ele>369</ele>
        <time>2017-06-21T06:07:58Z</time>
      </trkpt>
      <trkpt lat="49.88094" lon="5.23553">
        <ele>369</ele>
        <time>2017-06-21T06:08:09Z</time>
      </trkpt>
      <trkpt lat="49.88107" lon="5.23528">
        <ele>368</ele>
        <time>2017-06-21T06:08:19Z</time>
      </trkpt>
      <trkpt lat="49.88122" lon="5.23499">
        <ele>367</ele>
        <time>2017-06-21T06:08:29Z</time>
      </trkpt>
      <trkpt lat="49.8814" lon="5.23463">
        <ele>367</ele>
        <time>2017-06-21T06:08:40Z</time>
      </trkpt>
      <trkpt lat="49.88157" lon="5.23426">
        <ele>367</ele>
        <time>2017-06-21T06:08:51Z</time>
      </trkpt>
      <trkpt lat="49.88171" lon="5.23397">
        <ele>368</ele>
        <time>2017-06-21T06:09:02Z</time>
      </trkpt>
      <trkpt lat="49.88183" lon="5.23373">
        <ele>368</ele>
        <time>2017-06-21T06:09:12Z</time>
      </trkpt>
      <trkpt lat="49.882" lon="5.23345">
        <ele>368</ele>
        <time>2017-06-21T06:09:22Z</time>
      </trkpt>
      <trkpt lat="49.88199" lon="5.23311">
        <ele>369</ele>
        <time>2017-06-21T06:09:32Z</time>
      </trkpt>
      <trkpt lat="49.88187" lon="5.23277">
        <ele>368</ele>
        <time>2017-06-21T06:09:43Z</time>
      </trkpt>
      <trkpt lat="49.88175" lon="5.23246">
        <ele>369</ele>
        <time>2017-06-21T06:09:53Z</time>
      </trkpt>
      <trkpt lat="49.88164" lon="5.2321">
        <ele>368</ele>
        <time>2017-06-21T06:10:04Z</time>
      </trkpt>
      <trkpt lat="49.88153" lon="5.23174">
        <ele>368</ele>
        <time>2017-06-21T06:10:15Z</time>
      </trkpt>
      <trkpt lat="49.88144" lon="5.23142">
        <ele>368</ele>
        <time>2017-06-21T06:10:25Z</time>
      </trkpt>
      <trkpt lat="49.88134" lon="5.23108">
        <ele>367</ele>
        <time>2017-06-21T06:10:36Z</time>
      </trkpt>
      <trkpt lat="49.88125" lon="5.23074">
        <ele>367</ele>
        <time>2017-06-21T06:10:47Z</time>
      </trkpt>
      <trkpt lat="49.88116" lon="5.23043">
        <ele>367</ele>
        <time>2017-06-21T06:10:57Z</time>
      </trkpt>
      <trkpt lat="49.88108" lon="5.2301">
        <ele>367</ele>
        <time>2017-06-21T06:11:08Z</time>
      </trkpt>
      <trkpt lat="49.88101" lon="5.2298">
        <ele>368</ele>
        <time>2017-06-21T06:11:18Z</time>
      </trkpt>
      <trkpt lat="49.88092" lon="5.22947">
        <ele>369</ele>
        <time>2017-06-21T06:11:29Z</time>
      </trkpt>
      <trkpt lat="49.88084" lon="5.22916">
        <ele>370</ele>
        <time>2017-06-21T06:11:40Z</time>
      </trkpt>
      <trkpt lat="49.88079" lon="5.22888">
        <ele>371</ele>
        <time>2017-06-21T06:11:51Z</time>
      </trkpt>
      <trkpt lat="49.88073" lon="5.22857">
        <ele>371</ele>
        <time>2017-06-21T06:12:02Z</time>
      </trkpt>
      <trkpt lat="49.88066" lon="5.22827">
        <ele>372</ele>
        <time>2017-06-21T06:12:13Z</time>
      </trkpt>
      <trkpt lat="49.88058" lon="5.22796">
        <ele>373</ele>
        <time>2017-06-21T06:12:24Z</time>
      </trkpt>
      <trkpt lat="49.88054" lon="5.22769">
        <ele>374</ele>
        <time>2017-06-21T06:12:35Z</time>
      </trkpt>
      <trkpt lat="49.88048" lon="5.22739">
        <ele>375</ele>
        <time>2017-06-21T06:12:46Z</time>
      </trkpt>
      <trkpt lat="49.88041" lon="5.22706">
        <ele>375</ele>
        <time>2017-06-21T06:12:57Z</time>
      </trkpt>
      <trkpt lat="49.88035" lon="5.22674">
        <ele>376</ele>
        <time>2017-06-21T06:13:07Z</time>
      </trkpt>
      <trkpt lat="49.88031" lon="5.22641">
        <ele>377</ele>
        <time>2017-06-21T06:13:18Z</time>
      </trkpt>
      <trkpt lat="49.88026" lon="5.22609">
        <ele>378</ele>
        <time>2017-06-21T06:13:28Z</time>
      </trkpt>
      <trkpt lat="49.88018" lon="5.22578">
        <ele>379</ele>
        <time>2017-06-21T06:13:39Z</time>
      </trkpt>
      <trkpt lat="49.88013" lon="5.22551">
        <ele>380</ele>
        <time>2017-06-21T06:13:49Z</time>
      </trkpt>
      <trkpt lat="49.8801" lon="5.22515">
        <ele>380</ele>
        <time>2017-06-21T06:14:00Z</time>
      </trkpt>
      <trkpt lat="49.8801" lon="5.22485">
        <ele>381</ele>
        <time>2017-06-21T06:14:10Z</time>
      </trkpt>
      <trkpt lat="49.88015" lon="5.22451">
        <ele>381</ele>
        <time>2017-06-21T06:14:20Z</time>
      </trkpt>
      <trkpt lat="49.88019" lon="5.2242">
        <ele>381</ele>
        <time>2017-06-21T06:14:30Z</time>
      </trkpt>
      <trkpt lat="49.88021" lon="5.2239">
        <ele>381</ele>
        <time>2017-06-21T06:14:41Z</time>
      </trkpt>
      <trkpt lat="49.88025" lon="5.22362">
        <ele>380</ele>
        <time>2017-06-21T06:14:51Z</time>
      </trkpt>
      <trkpt lat="49.8803" lon="5.22327">
        <ele>380</ele>
        <time>2017-06-21T06:15:02Z</time>
      </trkpt>
      <trkpt lat="49.88035" lon="5.22295">
        <ele>379</ele>
        <time>2017-06-21T06:15:12Z</time>
      </trkpt>
      <trkpt lat="49.88039" lon="5.22262">
        <ele>378</ele>
        <time>2017-06-21T06:15:22Z</time>
      </trkpt>
      <trkpt lat="49.88044" lon="5.22229">
        <ele>377</ele>
        <time>2017-06-21T06:15:32Z</time>
      </trkpt>
      <trkpt lat="49.88048" lon="5.22189">
        <ele>376</ele>
        <time>2017-06-21T06:15:43Z</time>
      </trkpt>
      <trkpt lat="49.88059" lon="5.22148">
        <ele>375</ele>
        <time>2017-06-21T06:15:54Z</time>
      </trkpt>
      <trkpt lat="49.88068" lon="5.22113">
        <ele>375</ele>
        <time>2017-06-21T06:16:05Z</time>
      </trkpt>
      <trkpt lat="49.88079" lon="5.22078">
        <ele>374</ele>
        <time>2017-06-21T06:16:15Z</time>
      </trkpt>
      <trkpt lat="49.88084" lon="5.22045">
        <ele>374</ele>
        <time>2017-06-21T06:16:25Z</time>
      </trkpt>
      <trkpt lat="49.88088" lon="5.22007">
        <ele>374</ele>
        <time>2017-06-21T06:16:36Z</time>
      </trkpt>
      <trkpt lat="49.88088" lon="5.21965">
        <ele>375</ele>
        <time>2017-06-21T06:16:47Z</time>
      </trkpt>
      <trkpt lat="49.88084" lon="5.21928">
        <ele>375</ele>
        <time>2017-06-21T06:16:57Z</time>
      </trkpt>
      <trkpt lat="49.8809" lon="5.21909">
        <ele>375</ele>
        <time>2017-06-21T06:17:08Z</time>
      </trkpt>
      <trkpt lat="49.88103" lon="5.21909">
        <ele>377</ele>
        <time>2017-06-21T06:17:18Z</time>
      </trkpt>
      <trkpt lat="49.88121" lon="5.21907">
        <ele>378</ele>
        <time>2017-06-21T06:17:29Z</time>
      </trkpt>
      <trkpt lat="49.88139" lon="5.21906">
        <ele>379</ele>
        <time>2017-06-21T06:17:39Z</time>
      </trkpt>
      <trkpt lat="49.8816" lon="5.21914">
        <ele>381</ele>
        <time>2017-06-21T06:17:50Z</time>
      </trkpt>
      <trkpt lat="49.88177" lon="5.21904">
        <ele>381</ele>
        <time>2017-06-21T06:18:00Z</time>
      </trkpt>
      <trkpt lat="49.88197" lon="5.21894">
        <ele>382</ele>
        <time>2017-06-21T06:18:10Z</time>
      </trkpt>
      <trkpt lat="49.88209" lon="5.21917">
        <ele>383</ele>
        <time>2017-06-21T06:18:20Z</time>
      </trkpt>
      <trkpt lat="49.88223" lon="5.21946">
        <ele>382</ele>
        <time>2017-06-21T06:18:31Z</time>
      </trkpt>
      <trkpt lat="49.88237" lon="5.2197">
        <ele>382</ele>
        <time>2017-06-21T06:18:41Z</time>
      </trkpt>
      <trkpt lat="49.88249" lon="5.21991">
        <ele>382</ele>
        <time>2017-06-21T06:18:52Z</time>
      </trkpt>
      <trkpt lat="49.88259" lon="5.22012">
        <ele>382</ele>
        <time>2017-06-21T06:19:03Z</time>
      </trkpt>
      <trkpt lat="49.88267" lon="5.22028">
        <ele>383</ele>
        <time>2017-06-21T06:19:13Z</time>
      </trkpt>
      <trkpt lat="49.88282" lon="5.22052">
        <ele>384</ele>
        <time>2017-06-21T06:19:24Z</time>
      </trkpt>
      <trkpt lat="49.88298" lon="5.22075">
        <ele>384</ele>
        <time>2017-06-21T06:19:34Z</time>
      </trkpt>
      <trkpt lat="49.88314" lon="5.22098">
        <ele>384</ele>
        <time>2017-06-21T06:19:45Z</time>
      </trkpt>
      <trkpt lat="49.88325" lon="5.22121">
        <ele>385</ele>
        <time>2017-06-21T06:19:55Z</time>
      </trkpt>
      <trkpt lat="49.8834" lon="5.22147">
        <ele>385</ele>
        <time>2017-06-21T06:20:06Z</time>
      </trkpt>
      <trkpt lat="49.88354" lon="5.22172">
        <ele>386</ele>
        <time>2017-06-21T06:20:16Z</time>
      </trkpt>
      <trkpt lat="49.88369" lon="5.22196">
        <ele>386</ele>
        <time>2017-06-21T06:20:26Z</time>
      </trkpt>
      <trkpt lat="49.88382" lon="5.22219">
        <ele>387</ele>
        <time>2017-06-21T06:20:36Z</time>
      </trkpt>
      <trkpt lat="49.88401" lon="5.22244">
        <ele>387</ele>
        <time>2017-06-21T06:20:47Z</time>
      </trkpt>
      <trkpt lat="49.88417" lon="5.22267">
        <ele>387</ele>
        <time>2017-06-21T06:20:57Z</time>
      </trkpt>
      <trkpt lat="49.88433" lon="5.22296">
        <ele>388</ele>
        <time>2017-06-21T06:21:08Z</time>
      </trkpt>
      <trkpt lat="49.88441" lon="5.22313">
        <ele>388</ele>
        <time>2017-06-21T06:21:18Z</time>
      </trkpt>
      <trkpt lat="49.88451" lon="5.22332">
        <ele>389</ele>
        <time>2017-06-21T06:21:29Z</time>
      </trkpt>
      <trkpt lat="49.88464" lon="5.22352">
        <ele>389</ele>
        <time>2017-06-21T06:21:39Z</time>
      </trkpt>
      <trkpt lat="49.88486" lon="5.22371">
        <ele>390</ele>
        <time>2017-06-21T06:21:49Z</time>
      </trkpt>
      <trkpt lat="49.88511" lon="5.22392">
        <ele>390</ele>
        <time>2017-06-21T06:22:00Z</time>
      </trkpt>
      <trkpt lat="49.88538" lon="5.22407">
        <ele>391</ele>
        <time>2017-06-21T06:22:11Z</time>
      </trkpt>
      <trkpt lat="49.88561" lon="5.22416">
        <ele>390</ele>
        <time>2017-06-21T06:22:21Z</time>
      </trkpt>
      <trkpt lat="49.88581" lon="5.22428">
        <ele>389</ele>
        <time>2017-06-21T06:22:32Z</time>
      </trkpt>
      <trkpt lat="49.88602" lon="5.22438">
        <ele>390</ele>
        <time>2017-06-21T06:22:42Z</time>
      </trkpt>
      <trkpt lat="49.88625" lon="5.22452">
        <ele>390</ele>
        <time>2017-06-21T06:22:52Z</time>
      </trkpt>
      <trkpt lat="49.88652" lon="5.22463">
        <ele>390</ele>
        <time>2017-06-21T06:23:03Z</time>
      </trkpt>
      <trkpt lat="49.88676" lon="5.22475">
        <ele>389</ele>
        <time>2017-06-21T06:23:13Z</time>
      </trkpt>
      <trkpt lat="49.88701" lon="5.22487">
        <ele>390</ele>
        <time>2017-06-21T06:23:24Z</time>
      </trkpt>
      <trkpt lat="49.88708" lon="5.22514">
        <ele>389</ele>
        <time>2017-06-21T06:23:34Z</time>
      </trkpt>
      <trkpt lat="49.88695" lon="5.22542">
        <ele>388</ele>
        <time>2017-06-21T06:23:44Z</time>
      </trkpt>
      <trkpt lat="49.88681" lon="5.22566">
        <ele>386</ele>
        <time>2017-06-21T06:23:54Z</time>
      </trkpt>
      <trkpt lat="49.88666" lon="5.22589">
        <ele>386</ele>
        <time>2017-06-21T06:24:04Z</time>
      </trkpt>
      <trkpt lat="49.88649" lon="5.22618">
        <ele>386</ele>
        <time>2017-06-21T06:24:14Z</time>
      </trkpt>
      <trkpt lat="49.8863" lon="5.22649">
        <ele>385</ele>
        <time>2017-06-21T06:24:25Z</time>
      </trkpt>
      <trkpt lat="49.88613" lon="5.22678">
        <ele>384</ele>
        <time>2017-06-21T06:24:36Z</time>
      </trkpt>
      <trkpt lat="49.88597" lon="5.22703">
        <ele>384</ele>
        <time>2017-06-21T06:24:46Z</time>
      </trkpt>
      <trkpt lat="49.8858" lon="5.22728">
        <ele>383</ele>
        <time>2017-06-21T06:24:57Z</time>
      </trkpt>
      <trkpt lat="49.88561" lon="5.22753">
        <ele>383</ele>
        <time>2017-06-21T06:25:08Z</time>
      </trkpt>
      <trkpt lat="49.88544" lon="5.22776">
        <ele>382</ele>
        <time>2017-06-21T06:25:18Z</time>
      </trkpt>
      <trkpt lat="49.88528" lon="5.22805">
        <ele>381</ele>
        <time>2017-06-21T06:25:28Z</time>
      </trkpt>
      <trkpt lat="49.88513" lon="5.22833">
        <ele>380</ele>
        <time>2017-06-21T06:25:38Z</time>
      </trkpt>
      <trkpt lat="49.88496" lon="5.22862">
        <ele>380</ele>
        <time>2017-06-21T06:25:49Z</time>
      </trkpt>
      <trkpt lat="49.88479" lon="5.2289">
        <ele>381</ele>
        <time>2017-06-21T06:26:00Z</time>
      </trkpt>
      <trkpt lat="49.88462" lon="5.22915">
        <ele>380</ele>
        <time>2017-06-21T06:26:10Z</time>
      </trkpt>
      <trkpt lat="49.88446" lon="5.22943">
        <ele>378</ele>
        <time>2017-06-21T06:26:21Z</time>
      </trkpt>
      <trkpt lat="49.88429" lon="5.22971">
        <ele>377</ele>
        <time>2017-06-21T06:26:32Z</time>
      </trkpt>
      <trkpt lat="49.88412" lon="5.22998">
        <ele>376</ele>
        <time>2017-06-21T06:26:43Z</time>
      </trkpt>
      <trkpt lat="49.88396" lon="5.23024">
        <ele>376</ele>
        <time>2017-06-21T06:26:53Z</time>
      </trkpt>
      <trkpt lat="49.88379" lon="5.2305">
        <ele>375</ele>
        <time>2017-06-21T06:27:03Z</time>
      </trkpt>
      <trkpt lat="49.88362" lon="5.23075">
        <ele>375</ele>
        <time>2017-06-21T06:27:14Z</time>
      </trkpt>
      <trkpt lat="49.88345" lon="5.231">
        <ele>375</ele>
        <time>2017-06-21T06:27:24Z</time>
      </trkpt>
      <trkpt lat="49.88327" lon="5.23128">
        <ele>374</ele>
        <time>2017-06-21T06:27:35Z</time>
      </trkpt>
      <trkpt lat="49.88311" lon="5.23156">
        <ele>374</ele>
        <time>2017-06-21T06:27:45Z</time>
      </trkpt>
      <trkpt lat="49.88291" lon="5.2319">
        <ele>373</ele>
        <time>2017-06-21T06:27:56Z</time>
      </trkpt>
      <trkpt lat="49.88273" lon="5.23221">
        <ele>371</ele>
        <time>2017-06-21T06:28:07Z</time>
      </trkpt>
      <trkpt lat="49.88253" lon="5.23252">
        <ele>370</ele>
        <time>2017-06-21T06:28:18Z</time>
      </trkpt>
      <trkpt lat="49.88237" lon="5.23279">
        <ele>369</ele>
        <time>2017-06-21T06:28:28Z</time>
      </trkpt>
      <trkpt lat="49.88219" lon="5.23309">
        <ele>368</ele>
        <time>2017-06-21T06:28:39Z</time>
      </trkpt>
      <trkpt lat="49.88203" lon="5.2334">
        <ele>368</ele>
        <time>2017-06-21T06:28:50Z</time>
      </trkpt>
      <trkpt lat="49.88189" lon="5.23364">
        <ele>367</ele>
        <time>2017-06-21T06:29:00Z</time>
      </trkpt>
      <trkpt lat="49.88173" lon="5.2339">
        <ele>367</ele>
        <time>2017-06-21T06:29:11Z</time>
      </trkpt>
      <trkpt lat="49.88159" lon="5.23417">
        <ele>366</ele>
        <time>2017-06-21T06:29:21Z</time>
      </trkpt>
      <trkpt lat="49.88146" lon="5.23444">
        <ele>366</ele>
        <time>2017-06-21T06:29:31Z</time>
      </trkpt>
      <trkpt lat="49.88134" lon="5.2347">
        <ele>366</ele>
        <time>2017-06-21T06:29:41Z</time>
      </trkpt>
      <trkpt lat="49.8812" lon="5.23492">
        <ele>366</ele>
        <time>2017-06-21T06:29:52Z</time>
      </trkpt>
      <trkpt lat="49.88106" lon="5.23511">
        <ele>366</ele>
        <time>2017-06-21T06:30:02Z</time>
      </trkpt>
      <trkpt lat="49.88093" lon="5.23531">
        <ele>366</ele>
        <time>2017-06-21T06:30:12Z</time>
      </trkpt>
      <trkpt lat="49.88078" lon="5.23555">
        <ele>367</ele>
        <time>2017-06-21T06:30:23Z</time>
      </trkpt>
      <trkpt lat="49.88063" lon="5.23579">
        <ele>368</ele>
        <time>2017-06-21T06:30:33Z</time>
      </trkpt>
      <trkpt lat="49.88049" lon="5.23608">
        <ele>369</ele>
        <time>2017-06-21T06:30:43Z</time>
      </trkpt>
      <trkpt lat="49.88034" lon="5.23638">
        <ele>369</ele>
        <time>2017-06-21T06:30:54Z</time>
      </trkpt>
      <trkpt lat="49.88019" lon="5.23662">
        <ele>371</ele>
        <time>2017-06-21T06:31:04Z</time>
      </trkpt>
      <trkpt lat="49.88005" lon="5.23687">
        <ele>371</ele>
        <time>2017-06-21T06:31:15Z</time>
      </trkpt>
      <trkpt lat="49.87991" lon="5.23714">
        <ele>372</ele>
        <time>2017-06-21T06:31:25Z</time>
      </trkpt>
      <trkpt lat="49.87978" lon="5.23744">
        <ele>372</ele>
        <time>2017-06-21T06:31:35Z</time>
      </trkpt>
      <trkpt lat="49.87966" lon="5.23776">
        <ele>374</ele>
        <time>2017-06-21T06:31:45Z</time>
      </trkpt>
      <trkpt lat="49.87956" lon="5.23809">
        <ele>373</ele>
        <time>2017-06-21T06:31:55Z</time>
      </trkpt>
      <trkpt lat="49.87944" lon="5.23848">
        <ele>375</ele>
        <time>2017-06-21T06:32:06Z</time>
      </trkpt>
      <trkpt lat="49.87931" lon="5.23889">
        <ele>376</ele>
        <time>2017-06-21T06:32:17Z</time>
      </trkpt>
      <trkpt lat="49.87919" lon="5.23929">
        <ele>376</ele>
        <time>2017-06-21T06:32:27Z</time>
      </trkpt>
      <trkpt lat="49.87935" lon="5.23967">
        <ele>376</ele>
        <time>2017-06-21T06:32:38Z</time>
      </trkpt>
      <trkpt lat="49.8795" lon="5.23978">
        <ele>376</ele>
        <time>2017-06-21T06:32:39Z</time>
      </trkpt>
    </trkseg>
  </trk>
</gpx>